createdAt,value
2017-12-04T21:00:23.877Z,4832
2017-12-04T21:01:36.928Z,4404
2017-12-04T21:02:49.456Z,3940
2017-12-04T21:04:01.486Z,3892
2017-12-04T21:05:13.951Z,4132
2017-12-04T21:06:26.912Z,3924
2017-12-04T21:07:38.477Z,3304
2017-12-04T21:08:51.424Z,2612
2017-12-04T21:10:04.397Z,2308
2017-12-04T21:11:17.547Z,2248
2017-12-04T21:12:30.677Z,2060
2017-12-04T21:13:43.658Z,1904
2017-12-04T21:14:56.168Z,1692
2017-12-04T21:16:09.427Z,1432
2017-12-04T21:17:22.176Z,1228
2017-12-04T21:18:35.168Z,1228
2017-12-04T21:19:48.397Z,1120
2017-12-04T21:21:00.996Z,1088
2017-12-04T21:22:14.166Z,1112
2017-12-04T21:23:27.127Z,1120
2017-12-04T21:24:40.116Z,1112
2017-12-04T21:25:52.669Z,1000
2017-12-04T21:27:05.634Z,796
2017-12-04T21:28:18.608Z,560
2017-12-04T21:29:31.571Z,448
2017-12-04T21:30:44.530Z,424
2017-12-04T21:31:57.504Z,388
2017-12-04T21:33:10.012Z,348
2017-12-04T21:34:22.576Z,352
2017-12-04T21:35:35.551Z,300
2017-12-04T21:36:48.540Z,268
2017-12-04T21:38:00.553Z,244
2017-12-04T21:39:13.808Z,212
2017-12-04T21:40:25.885Z,172
2017-12-04T21:41:37.904Z,140
2017-12-04T21:42:50.871Z,140
2017-12-04T21:44:03.828Z,140
2017-12-04T21:45:16.531Z,120
2017-12-04T21:47:00.742Z,76
2017-12-04T21:48:13.214Z,68
2017-12-04T21:49:26.183Z,64
2017-12-04T21:50:39.105Z,68
2017-12-04T21:51:52.076Z,64
2017-12-04T21:53:04.190Z,52
2017-12-04T21:54:17.189Z,44
2017-12-04T21:55:30.622Z,28
2017-12-04T21:56:43.806Z,20
2017-12-04T21:57:57.490Z,16
2017-12-04T21:59:11.162Z,16
2017-12-04T22:00:24.548Z,12
2017-12-04T22:01:37.711Z,12
2017-12-04T22:02:51.371Z,4
2017-12-04T22:04:04.452Z,4
2017-12-04T22:05:18.124Z,4
2017-12-04T22:06:31.846Z,4
2017-12-04T22:07:44.988Z,0
2017-12-04T22:08:58.626Z,0
2017-12-04T22:10:12.517Z,0
2017-12-04T22:11:26.184Z,0
2017-12-04T22:12:39.839Z,0
2017-12-04T22:13:53.496Z,0
2017-12-04T22:15:06.658Z,0
2017-12-04T22:16:50.859Z,0
2017-12-04T22:18:04.505Z,0
2017-12-04T22:19:18.208Z,0
2017-12-04T22:20:31.341Z,0
2017-12-04T22:21:44.988Z,0
2017-12-04T22:22:58.652Z,0
2017-12-04T22:24:11.801Z,0
2017-12-04T22:25:25.437Z,0
2017-12-04T22:26:39.113Z,0
2017-12-04T22:27:52.250Z,0
2017-12-04T22:29:05.394Z,0
2017-12-04T22:30:18.568Z,0
2017-12-04T22:31:32.234Z,0
2017-12-04T22:32:44.863Z,0
2017-12-04T22:33:58.084Z,0
2017-12-04T22:35:11.938Z,0
2017-12-04T22:36:25.235Z,0
2017-12-04T22:37:38.927Z,0
2017-12-04T22:38:52.084Z,0
2017-12-04T22:40:05.218Z,0
2017-12-04T22:41:49.938Z,0
2017-12-04T22:43:03.113Z,0
2017-12-04T22:44:16.671Z,0
2017-12-04T22:45:30.391Z,0
2017-12-04T22:46:43.119Z,0
2017-12-04T22:47:56.446Z,0
2017-12-04T22:49:10.106Z,0
2017-12-04T22:50:23.748Z,0
2017-12-04T22:51:37.419Z,0
2017-12-04T22:52:51.065Z,0
2017-12-04T22:54:04.267Z,0
2017-12-04T22:55:18.156Z,0
2017-12-04T22:56:31.815Z,0
2017-12-04T22:57:44.966Z,0
2017-12-04T22:58:58.597Z,0
2017-12-04T23:00:11.726Z,0
2017-12-04T23:01:24.875Z,0
2017-12-04T23:02:39.479Z,0
2017-12-04T23:03:53.140Z,0
2017-12-04T23:05:05.227Z,0
2017-12-04T23:06:18.089Z,0
2017-12-04T23:07:31.756Z,0
2017-12-04T23:08:45.434Z,0
2017-12-04T23:09:59.313Z,0
2017-12-04T23:11:12.990Z,0
2017-12-04T23:12:26.646Z,0
2017-12-04T23:13:40.323Z,0
2017-12-04T23:14:53.478Z,0
2017-12-04T23:16:06.127Z,0
2017-12-04T23:17:19.324Z,0
2017-12-04T23:18:32.980Z,0
2017-12-04T23:19:46.662Z,0
2017-12-04T23:21:00.356Z,0
2017-12-04T23:22:13.490Z,0
2017-12-04T23:23:27.485Z,0
2017-12-04T23:24:41.176Z,0
2017-12-04T23:25:54.349Z,0
2017-12-04T23:27:08.036Z,0
2017-12-04T23:28:21.688Z,0
2017-12-04T23:29:34.820Z,0
2017-12-04T23:30:48.528Z,0
2017-12-04T23:32:01.684Z,0
2017-12-04T23:33:15.072Z,0
2017-12-04T23:34:28.742Z,0
2017-12-04T23:35:42.419Z,0
2017-12-04T23:36:55.778Z,0
2017-12-04T23:38:09.483Z,0
2017-12-04T23:39:23.178Z,0
2017-12-04T23:40:36.348Z,0
2017-12-04T23:41:49.509Z,0
2017-12-04T23:43:03.160Z,0
2017-12-04T23:44:16.853Z,0
2017-12-04T23:45:30.501Z,0
2017-12-04T23:46:44.154Z,0
2017-12-04T23:47:57.263Z,0
2017-12-04T23:49:10.999Z,0
2017-12-04T23:50:24.700Z,0
2017-12-04T23:51:37.850Z,0
2017-12-04T23:52:51.523Z,0
2017-12-04T23:54:05.149Z,0
2017-12-04T23:55:18.248Z,0
2017-12-04T23:56:31.937Z,0
2017-12-04T23:57:44.559Z,0
2017-12-04T23:58:58.190Z,0
